sensor_id;sensor_type;location;lat;lon;timestamp;P1;durP1;ratioP1;P2;durP2;ratioP2
21099;SDS011;10708;50.824;4.408;2023-04-01T00:04:38;249.53;;;234.03;;
21099;SDS011;10708;50.824;4.408;2023-04-01T00:09:42;268.73;;;252.68;;
21099;SDS011;10708;50.824;4.408;2023-04-01T00:14:44;334.83;;;315.17;;
21099;SDS011;10708;50.824;4.408;2023-04-01T00:19:47;239.07;;;225.30;;
21099;SDS011;10708;50.824;4.408;2023-04-01T00:24:51;311.90;;;292.52;;
21099;SDS011;10708;50.824;4.408;2023-04-01T00:29:53;166.82;;;157.00;;
21099;SDS011;10708;50.824;4.408;2023-04-01T00:34:56;320.40;;;300.23;;
21099;SDS011;10708;50.824;4.408;2023-04-01T00:40:00;280.20;;;263.38;;
21099;SDS011;10708;50.824;4.408;2023-04-01T00:50:28;252.93;;;238.40;;
21099;SDS011;10708;50.824;4.408;2023-04-01T00:55:33;405.80;;;383.20;;
21099;SDS011;10708;50.824;4.408;2023-04-01T01:00:39;420.92;;;395.65;;
21099;SDS011;10708;50.824;4.408;2023-04-01T01:11:14;159.47;;;149.93;;
21099;SDS011;10708;50.824;4.408;2023-04-01T01:16:22;265.60;;;250.10;;
21099;SDS011;10708;50.824;4.408;2023-04-01T01:21:39;190.40;;;179.73;;
21099;SDS011;10708;50.824;4.408;2023-04-01T01:26:56;125.03;;;117.87;;
21099;SDS011;10708;50.824;4.408;2023-04-01T01:32:06;220.80;;;208.73;;
21099;SDS011;10708;50.824;4.408;2023-04-01T01:37:21;163.93;;;154.60;;
21099;SDS011;10708;50.824;4.408;2023-04-01T01:42:28;162.52;;;153.27;;
21099;SDS011;10708;50.824;4.408;2023-04-01T01:47:33;219.52;;;205.93;;
21099;SDS011;10708;50.824;4.408;2023-04-01T01:52:39;330.02;;;310.20;;
21099;SDS011;10708;50.824;4.408;2023-04-01T01:57:41;152.15;;;143.38;;
21099;SDS011;10708;50.824;4.408;2023-04-01T02:02:46;162.80;;;153.63;;
21099;SDS011;10708;50.824;4.408;2023-04-01T02:07:54;237.20;;;221.87;;
21099;SDS011;10708;50.824;4.408;2023-04-01T02:13:04;154.00;;;144.70;;
21099;SDS011;10708;50.824;4.408;2023-04-01T02:18:11;398.07;;;372.33;;
21099;SDS011;10708;50.824;4.408;2023-04-01T02:23:16;451.85;;;420.92;;
21099;SDS011;10708;50.824;4.408;2023-04-01T02:28:19;798.05;;;736.92;;
21099;SDS011;10708;50.824;4.408;2023-04-01T02:33:24;651.85;;;608.42;;
21099;SDS011;10708;50.824;4.408;2023-04-01T02:38:28;478.00;;;448.60;;
21099;SDS011;10708;50.824;4.408;2023-04-01T02:43:30;317.35;;;298.40;;
21099;SDS011;10708;50.824;4.408;2023-04-01T02:48:33;147.77;;;138.70;;
21099;SDS011;10708;50.824;4.408;2023-04-01T02:53:36;619.10;;;573.15;;
21099;SDS011;10708;50.824;4.408;2023-04-01T02:58:39;271.20;;;256.20;;
21099;SDS011;10708;50.824;4.408;2023-04-01T03:03:41;243.80;;;229.13;;
21099;SDS011;10708;50.824;4.408;2023-04-01T03:08:45;345.35;;;323.80;;
21099;SDS011;10708;50.824;4.408;2023-04-01T03:13:47;120.10;;;112.47;;
21099;SDS011;10708;50.824;4.408;2023-04-01T03:18:50;380.38;;;357.13;;
21099;SDS011;10708;50.824;4.408;2023-04-01T03:23:54;99.30;;;92.63;;
21099;SDS011;10708;50.824;4.408;2023-04-01T03:28:56;217.82;;;204.60;;
21099;SDS011;10708;50.824;4.408;2023-04-01T03:33:59;314.92;;;295.30;;
21099;SDS011;10708;50.824;4.408;2023-04-01T03:39:03;444.90;;;416.85;;
21099;SDS011;10708;50.824;4.408;2023-04-01T03:44:05;385.48;;;361.00;;
21099;SDS011;10708;50.824;4.408;2023-04-01T03:49:08;331.87;;;310.90;;
21099;SDS011;10708;50.824;4.408;2023-04-01T03:54:13;468.03;;;437.97;;
21099;SDS011;10708;50.824;4.408;2023-04-01T03:59:15;198.93;;;186.52;;
21099;SDS011;10708;50.824;4.408;2023-04-01T04:04:18;383.07;;;359.77;;
21099;SDS011;10708;50.824;4.408;2023-04-01T04:09:22;274.55;;;257.52;;
21099;SDS011;10708;50.824;4.408;2023-04-01T04:14:24;276.80;;;259.60;;
21099;SDS011;10708;50.824;4.408;2023-04-01T04:19:30;203.88;;;191.57;;
21099;SDS011;10708;50.824;4.408;2023-04-01T04:24:35;357.65;;;333.80;;
21099;SDS011;10708;50.824;4.408;2023-04-01T04:29:38;177.38;;;165.57;;
21099;SDS011;10708;50.824;4.408;2023-04-01T04:34:40;167.37;;;157.03;;
21099;SDS011;10708;50.824;4.408;2023-04-01T04:39:44;282.40;;;266.02;;
21099;SDS011;10708;50.824;4.408;2023-04-01T04:44:46;341.83;;;322.17;;
21099;SDS011;10708;50.824;4.408;2023-04-01T04:49:49;247.15;;;233.32;;
21099;SDS011;10708;50.824;4.408;2023-04-01T04:54:52;355.63;;;335.30;;
21099;SDS011;10708;50.824;4.408;2023-04-01T04:59:55;323.03;;;305.37;;
21099;SDS011;10708;50.824;4.408;2023-04-01T05:04:57;469.23;;;441.13;;
21099;SDS011;10708;50.824;4.408;2023-04-01T05:10:01;407.42;;;384.70;;
21099;SDS011;10708;50.824;4.408;2023-04-01T05:15:03;458.77;;;432.93;;
21099;SDS011;10708;50.824;4.408;2023-04-01T05:20:07;287.70;;;270.58;;
21099;SDS011;10708;50.824;4.408;2023-04-01T05:25:11;605.77;;;565.47;;
21099;SDS011;10708;50.824;4.408;2023-04-01T05:30:14;257.15;;;242.60;;
21099;SDS011;10708;50.824;4.408;2023-04-01T05:35:16;291.23;;;272.83;;
21099;SDS011;10708;50.824;4.408;2023-04-01T05:40:20;331.33;;;311.10;;
21099;SDS011;10708;50.824;4.408;2023-04-01T05:45:22;222.88;;;209.98;;
21099;SDS011;10708;50.824;4.408;2023-04-01T05:50:25;228.90;;;215.00;;
21099;SDS011;10708;50.824;4.408;2023-04-01T05:55:28;287.23;;;268.17;;
21099;SDS011;10708;50.824;4.408;2023-04-01T06:00:31;456.90;;;423.37;;
21099;SDS011;10708;50.824;4.408;2023-04-01T06:05:36;301.40;;;280.13;;
21099;SDS011;10708;50.824;4.408;2023-04-01T06:10:46;605.53;;;558.25;;
21099;SDS011;10708;50.824;4.408;2023-04-01T06:15:57;420.23;;;390.67;;
21099;SDS011;10708;50.824;4.408;2023-04-01T06:21:14;365.13;;;339.48;;
21099;SDS011;10708;50.824;4.408;2023-04-01T06:26:51;418.10;;;390.60;;
21099;SDS011;10708;50.824;4.408;2023-04-01T06:32:10;590.83;;;550.30;;
21099;SDS011;10708;50.824;4.408;2023-04-01T06:37:30;205.63;;;192.10;;
21099;SDS011;10708;50.824;4.408;2023-04-01T06:42:53;447.63;;;413.95;;
21099;SDS011;10708;50.824;4.408;2023-04-01T06:48:13;598.03;;;558.50;;
21099;SDS011;10708;50.824;4.408;2023-04-01T06:53:31;551.35;;;514.80;;
21099;SDS011;10708;50.824;4.408;2023-04-01T06:58:44;637.45;;;594.35;;
21099;SDS011;10708;50.824;4.408;2023-04-01T07:03:53;567.42;;;531.08;;
21099;SDS011;10708;50.824;4.408;2023-04-01T07:08:59;434.67;;;403.88;;
21099;SDS011;10708;50.824;4.408;2023-04-01T07:14:10;414.60;;;391.20;;
21099;SDS011;10708;50.824;4.408;2023-04-01T07:19:18;423.40;;;397.42;;
21099;SDS011;10708;50.824;4.408;2023-04-01T07:24:27;429.47;;;403.63;;
21099;SDS011;10708;50.824;4.408;2023-04-01T07:29:36;390.23;;;363.40;;
21099;SDS011;10708;50.824;4.408;2023-04-01T07:34:40;229.63;;;216.60;;
21099;SDS011;10708;50.824;4.408;2023-04-01T07:39:51;536.57;;;492.17;;
21099;SDS011;10708;50.824;4.408;2023-04-01T07:45:05;841.35;;;779.22;;
21099;SDS011;10708;50.824;4.408;2023-04-01T07:50:18;362.88;;;340.60;;
21099;SDS011;10708;50.824;4.408;2023-04-01T07:55:28;439.90;;;411.77;;
21099;SDS011;10708;50.824;4.408;2023-04-01T08:00:42;684.95;;;635.22;;
21099;SDS011;10708;50.824;4.408;2023-04-01T08:05:53;663.40;;;616.92;;
21099;SDS011;10708;50.824;4.408;2023-04-01T08:11:00;619.92;;;576.53;;
21099;SDS011;10708;50.824;4.408;2023-04-01T08:16:14;463.57;;;436.23;;
21099;SDS011;10708;50.824;4.408;2023-04-01T08:21:23;528.88;;;492.85;;
21099;SDS011;10708;50.824;4.408;2023-04-01T08:26:30;575.15;;;537.15;;
21099;SDS011;10708;50.824;4.408;2023-04-01T08:31:39;626.70;;;588.28;;
21099;SDS011;10708;50.824;4.408;2023-04-01T08:36:47;729.72;;;676.40;;
21099;SDS011;10708;50.824;4.408;2023-04-01T08:42:02;399.73;;;377.70;;
21099;SDS011;10708;50.824;4.408;2023-04-01T08:47:42;518.70;;;489.45;;
21099;SDS011;10708;50.824;4.408;2023-04-01T08:53:10;659.70;;;614.33;;
21099;SDS011;10708;50.824;4.408;2023-04-01T08:58:32;721.05;;;673.75;;
21099;SDS011;10708;50.824;4.408;2023-04-01T09:04:08;666.67;;;624.53;;
21099;SDS011;10708;50.824;4.408;2023-04-01T09:14:58;829.13;;;771.63;;
21099;SDS011;10708;50.824;4.408;2023-04-01T09:20:46;562.92;;;524.50;;
21099;SDS011;10708;50.824;4.408;2023-04-01T09:26:15;824.60;;;762.27;;
21099;SDS011;10708;50.824;4.408;2023-04-01T09:31:39;558.85;;;525.92;;
21099;SDS011;10708;50.824;4.408;2023-04-01T09:37:01;462.47;;;435.33;;
21099;SDS011;10708;50.824;4.408;2023-04-01T09:42:29;586.97;;;546.05;;
21099;SDS011;10708;50.824;4.408;2023-04-01T09:47:48;997.80;;;915.72;;
21099;SDS011;10708;50.824;4.408;2023-04-01T09:53:04;679.33;;;628.03;;
21099;SDS011;10708;50.824;4.408;2023-04-01T09:58:23;629.05;;;582.88;;
21099;SDS011;10708;50.824;4.408;2023-04-01T10:26:56;992.85;;;904.30;;
21099;SDS011;10708;50.824;4.408;2023-04-01T10:32:20;788.30;;;730.97;;
21099;SDS011;10708;50.824;4.408;2023-04-01T10:37:54;477.75;;;445.27;;
21099;SDS011;10708;50.824;4.408;2023-04-01T10:54:42;722.33;;;672.22;;
21099;SDS011;10708;50.824;4.408;2023-04-01T11:22:27;884.10;;;820.37;;
21099;SDS011;10708;50.824;4.408;2023-04-01T11:27:43;996.40;;;919.30;;
21099;SDS011;10708;50.824;4.408;2023-04-01T11:33:04;825.05;;;766.72;;
21099;SDS011;10708;50.824;4.408;2023-04-01T11:38:19;885.97;;;813.17;;
21099;SDS011;10708;50.824;4.408;2023-04-01T11:43:37;804.85;;;742.97;;
21099;SDS011;10708;50.824;4.408;2023-04-01T11:48:50;691.33;;;644.40;;
21099;SDS011;10708;50.824;4.408;2023-04-01T11:54:00;718.63;;;669.90;;
21099;SDS011;10708;50.824;4.408;2023-04-01T12:04:59;728.43;;;674.17;;
21099;SDS011;10708;50.824;4.408;2023-04-01T12:10:17;619.43;;;579.20;;
21099;SDS011;10708;50.824;4.408;2023-04-01T12:15:23;589.03;;;552.35;;
21099;SDS011;10708;50.824;4.408;2023-04-01T12:20:38;737.03;;;682.10;;
21099;SDS011;10708;50.824;4.408;2023-04-01T12:26:01;853.67;;;787.67;;
21099;SDS011;10708;50.824;4.408;2023-04-01T12:31:17;1082.28;;;987.17;;
21099;SDS011;10708;50.824;4.408;2023-04-01T12:36:37;933.97;;;854.83;;
21099;SDS011;10708;50.824;4.408;2023-04-01T12:41:49;809.20;;;738.70;;
21099;SDS011;10708;50.824;4.408;2023-04-01T12:47:13;728.07;;;677.37;;
21099;SDS011;10708;50.824;4.408;2023-04-01T12:52:33;825.03;;;765.10;;
21099;SDS011;10708;50.824;4.408;2023-04-01T12:57:53;736.83;;;681.65;;
21099;SDS011;10708;50.824;4.408;2023-04-01T13:03:20;542.40;;;504.63;;
21099;SDS011;10708;50.824;4.408;2023-04-01T13:08:39;426.70;;;397.97;;
21099;SDS011;10708;50.824;4.408;2023-04-01T13:13:54;797.43;;;724.97;;
21099;SDS011;10708;50.824;4.408;2023-04-01T13:19:17;1065.73;;;961.53;;
21099;SDS011;10708;50.824;4.408;2023-04-01T13:24:35;666.95;;;616.00;;
21099;SDS011;10708;50.824;4.408;2023-04-01T13:29:45;429.90;;;399.20;;
21099;SDS011;10708;50.824;4.408;2023-04-01T13:34:59;694.47;;;649.63;;
21099;SDS011;10708;50.824;4.408;2023-04-01T13:40:22;731.43;;;682.70;;
21099;SDS011;10708;50.824;4.408;2023-04-01T13:45:33;679.45;;;628.42;;
21099;SDS011;10708;50.824;4.408;2023-04-01T13:56:16;402.02;;;379.75;;
21099;SDS011;10708;50.824;4.408;2023-04-01T14:01:34;369.70;;;348.60;;
21099;SDS011;10708;50.824;4.408;2023-04-01T14:06:46;371.00;;;348.42;;
21099;SDS011;10708;50.824;4.408;2023-04-01T14:12:00;532.70;;;495.77;;
21099;SDS011;10708;50.824;4.408;2023-04-01T14:17:10;619.83;;;577.25;;
21099;SDS011;10708;50.824;4.408;2023-04-01T14:22:24;500.20;;;471.63;;
21099;SDS011;10708;50.824;4.408;2023-04-01T14:27:35;919.28;;;834.67;;
21099;SDS011;10708;50.824;4.408;2023-04-01T14:32:45;789.40;;;728.47;;
21099;SDS011;10708;50.824;4.408;2023-04-01T14:37:58;631.53;;;586.80;;
21099;SDS011;10708;50.824;4.408;2023-04-01T14:43:18;602.07;;;556.63;;
21099;SDS011;10708;50.824;4.408;2023-04-01T14:48:30;600.95;;;560.08;;
21099;SDS011;10708;50.824;4.408;2023-04-01T14:53:36;787.10;;;731.57;;
21099;SDS011;10708;50.824;4.408;2023-04-01T14:58:45;763.42;;;708.47;;
21099;SDS011;10708;50.824;4.408;2023-04-01T15:03:49;796.20;;;734.93;;
21099;SDS011;10708;50.824;4.408;2023-04-01T15:09:01;758.42;;;704.22;;
21099;SDS011;10708;50.824;4.408;2023-04-01T15:14:18;614.22;;;567.55;;
21099;SDS011;10708;50.824;4.408;2023-04-01T15:19:54;513.40;;;483.47;;
21099;SDS011;10708;50.824;4.408;2023-04-01T15:25:29;864.80;;;799.10;;
21099;SDS011;10708;50.824;4.408;2023-04-01T15:30:45;578.20;;;541.63;;
21099;SDS011;10708;50.824;4.408;2023-04-01T15:35:57;543.17;;;508.50;;
21099;SDS011;10708;50.824;4.408;2023-04-01T15:41:09;504.07;;;470.67;;
21099;SDS011;10708;50.824;4.408;2023-04-01T15:46:23;768.20;;;710.23;;
21099;SDS011;10708;50.824;4.408;2023-04-01T15:52:02;684.45;;;636.20;;
21099;SDS011;10708;50.824;4.408;2023-04-01T15:57:18;788.13;;;730.67;;
21099;SDS011;10708;50.824;4.408;2023-04-01T16:02:32;521.20;;;489.15;;
21099;SDS011;10708;50.824;4.408;2023-04-01T16:07:43;750.93;;;694.27;;
21099;SDS011;10708;50.824;4.408;2023-04-01T16:13:03;567.30;;;529.53;;
21099;SDS011;10708;50.824;4.408;2023-04-01T16:18:26;649.42;;;603.38;;
21099;SDS011;10708;50.824;4.408;2023-04-01T16:23:43;721.92;;;674.10;;
21099;SDS011;10708;50.824;4.408;2023-04-01T16:28:53;386.47;;;365.37;;
21099;SDS011;10708;50.824;4.408;2023-04-01T16:34:01;308.10;;;291.38;;
21099;SDS011;10708;50.824;4.408;2023-04-01T16:39:15;789.17;;;732.07;;
21099;SDS011;10708;50.824;4.408;2023-04-01T16:44:25;498.77;;;467.85;;
21099;SDS011;10708;50.824;4.408;2023-04-01T16:49:31;505.52;;;474.25;;
21099;SDS011;10708;50.824;4.408;2023-04-01T16:54:39;720.63;;;660.53;;
21099;SDS011;10708;50.824;4.408;2023-04-01T16:59:47;319.42;;;301.23;;
21099;SDS011;10708;50.824;4.408;2023-04-01T17:05:03;269.50;;;251.60;;
21099;SDS011;10708;50.824;4.408;2023-04-01T17:10:16;357.45;;;334.95;;
21099;SDS011;10708;50.824;4.408;2023-04-01T17:15:31;260.57;;;245.97;;
21099;SDS011;10708;50.824;4.408;2023-04-01T17:20:43;252.43;;;237.77;;
21099;SDS011;10708;50.824;4.408;2023-04-01T17:31:37;68.10;;;64.25;;
21099;SDS011;10708;50.824;4.408;2023-04-01T17:36:54;247.70;;;234.50;;
21099;SDS011;10708;50.824;4.408;2023-04-01T17:42:18;48.45;;;45.67;;
21099;SDS011;10708;50.824;4.408;2023-04-01T17:47:39;82.10;;;77.13;;
21099;SDS011;10708;50.824;4.408;2023-04-01T17:52:55;390.90;;;366.55;;
21099;SDS011;10708;50.824;4.408;2023-04-01T17:58:09;494.98;;;464.25;;
21099;SDS011;10708;50.824;4.408;2023-04-01T18:03:20;537.80;;;503.57;;
21099;SDS011;10708;50.824;4.408;2023-04-01T18:08:42;403.70;;;381.45;;
21099;SDS011;10708;50.824;4.408;2023-04-01T18:14:00;328.30;;;308.92;;
21099;SDS011;10708;50.824;4.408;2023-04-01T18:19:19;415.73;;;389.05;;
21099;SDS011;10708;50.824;4.408;2023-04-01T18:24:33;326.10;;;305.60;;
21099;SDS011;10708;50.824;4.408;2023-04-01T18:29:46;204.50;;;191.55;;
21099;SDS011;10708;50.824;4.408;2023-04-01T18:34:54;226.60;;;211.30;;
21099;SDS011;10708;50.824;4.408;2023-04-01T18:40:10;331.77;;;310.77;;
21099;SDS011;10708;50.824;4.408;2023-04-01T18:45:21;191.50;;;180.50;;
21099;SDS011;10708;50.824;4.408;2023-04-01T18:50:29;421.65;;;394.73;;
21099;SDS011;10708;50.824;4.408;2023-04-01T18:55:40;243.25;;;229.80;;
21099;SDS011;10708;50.824;4.408;2023-04-01T19:00:49;427.33;;;402.55;;
21099;SDS011;10708;50.824;4.408;2023-04-01T19:05:59;551.37;;;511.53;;
21099;SDS011;10708;50.824;4.408;2023-04-01T19:11:13;442.33;;;409.92;;
21099;SDS011;10708;50.824;4.408;2023-04-01T19:16:26;491.95;;;457.10;;
21099;SDS011;10708;50.824;4.408;2023-04-01T19:21:40;307.15;;;287.35;;
21099;SDS011;10708;50.824;4.408;2023-04-01T19:26:51;489.30;;;457.17;;
21099;SDS011;10708;50.824;4.408;2023-04-01T19:32:03;411.95;;;383.52;;
21099;SDS011;10708;50.824;4.408;2023-04-01T19:37:19;474.63;;;445.33;;
21099;SDS011;10708;50.824;4.408;2023-04-01T19:42:34;428.30;;;398.77;;
21099;SDS011;10708;50.824;4.408;2023-04-01T19:47:48;146.60;;;135.57;;
21099;SDS011;10708;50.824;4.408;2023-04-01T19:53:04;281.85;;;263.38;;
21099;SDS011;10708;50.824;4.408;2023-04-01T19:58:19;319.85;;;298.50;;
21099;SDS011;10708;50.824;4.408;2023-04-01T20:03:31;162.13;;;150.73;;
21099;SDS011;10708;50.824;4.408;2023-04-01T20:08:42;463.52;;;434.02;;
21099;SDS011;10708;50.824;4.408;2023-04-01T20:13:55;496.43;;;464.63;;
21099;SDS011;10708;50.824;4.408;2023-04-01T20:19:07;367.17;;;344.30;;
21099;SDS011;10708;50.824;4.408;2023-04-01T20:24:15;350.38;;;328.70;;
21099;SDS011;10708;50.824;4.408;2023-04-01T20:29:43;479.90;;;450.33;;
21099;SDS011;10708;50.824;4.408;2023-04-01T20:35:06;507.02;;;474.85;;
21099;SDS011;10708;50.824;4.408;2023-04-01T20:40:31;403.77;;;378.57;;
21099;SDS011;10708;50.824;4.408;2023-04-01T20:45:40;451.93;;;422.90;;
21099;SDS011;10708;50.824;4.408;2023-04-01T20:50:50;344.40;;;322.80;;
21099;SDS011;10708;50.824;4.408;2023-04-01T21:01:23;467.70;;;438.33;;
21099;SDS011;10708;50.824;4.408;2023-04-01T21:06:41;440.15;;;413.05;;
21099;SDS011;10708;50.824;4.408;2023-04-01T21:12:04;585.47;;;545.83;;
21099;SDS011;10708;50.824;4.408;2023-04-01T21:17:24;675.90;;;628.38;;
21099;SDS011;10708;50.824;4.408;2023-04-01T21:22:54;584.20;;;544.53;;
21099;SDS011;10708;50.824;4.408;2023-04-01T21:28:28;592.30;;;552.70;;
21099;SDS011;10708;50.824;4.408;2023-04-01T21:33:42;533.30;;;498.33;;
21099;SDS011;10708;50.824;4.408;2023-04-01T21:39:10;506.35;;;473.95;;
21099;SDS011;10708;50.824;4.408;2023-04-01T21:50:06;448.92;;;420.42;;
21099;SDS011;10708;50.824;4.408;2023-04-01T21:55:47;526.00;;;491.90;;
21099;SDS011;10708;50.824;4.408;2023-04-01T22:01:15;481.00;;;451.63;;
21099;SDS011;10708;50.824;4.408;2023-04-01T22:06:36;554.67;;;518.37;;
21099;SDS011;10708;50.824;4.408;2023-04-01T22:11:46;496.23;;;465.35;;
21099;SDS011;10708;50.824;4.408;2023-04-01T22:16:56;532.00;;;497.38;;
21099;SDS011;10708;50.824;4.408;2023-04-01T22:22:06;620.78;;;578.95;;
21099;SDS011;10708;50.824;4.408;2023-04-01T22:27:18;555.10;;;519.40;;
21099;SDS011;10708;50.824;4.408;2023-04-01T22:32:27;556.70;;;521.10;;
21099;SDS011;10708;50.824;4.408;2023-04-01T22:37:36;497.17;;;465.45;;
21099;SDS011;10708;50.824;4.408;2023-04-01T22:42:51;534.90;;;500.98;;
21099;SDS011;10708;50.824;4.408;2023-04-01T22:48:02;531.67;;;497.30;;
21099;SDS011;10708;50.824;4.408;2023-04-01T22:53:16;461.00;;;431.70;;
21099;SDS011;10708;50.824;4.408;2023-04-01T22:58:26;587.83;;;548.60;;
21099;SDS011;10708;50.824;4.408;2023-04-01T23:03:35;581.27;;;543.23;;
21099;SDS011;10708;50.824;4.408;2023-04-01T23:08:49;579.72;;;541.45;;
21099;SDS011;10708;50.824;4.408;2023-04-01T23:14:04;571.83;;;534.22;;
21099;SDS011;10708;50.824;4.408;2023-04-01T23:19:28;592.13;;;552.75;;
21099;SDS011;10708;50.824;4.408;2023-04-01T23:24:40;594.37;;;556.03;;
21099;SDS011;10708;50.824;4.408;2023-04-01T23:29:48;444.17;;;416.52;;
21099;SDS011;10708;50.824;4.408;2023-04-01T23:34:51;517.22;;;484.52;;
21099;SDS011;10708;50.824;4.408;2023-04-01T23:39:58;489.47;;;458.30;;
21099;SDS011;10708;50.824;4.408;2023-04-01T23:45:02;553.53;;;518.03;;
21099;SDS011;10708;50.824;4.408;2023-04-01T23:50:06;622.20;;;581.17;;
21099;SDS011;10708;50.824;4.408;2023-04-01T23:55:16;602.83;;;562.90;;
